createdAt,value
2022-11-15T00:01:50.420Z,23.35
2022-11-15T00:04:35.927Z,21.83
2022-11-15T00:07:48.475Z,20.55
2022-11-15T00:10:26.125Z,24.60
2022-11-15T00:13:12.896Z,24.60
2022-11-15T00:15:59.774Z,24.10
2022-11-15T00:18:50.391Z,23.48
2022-11-15T00:21:36.450Z,24.67
2022-11-15T00:24:30.272Z,25.77
2022-11-15T00:27:15.075Z,27.58
2022-11-15T00:30:00.001Z,26.45
2022-11-15T00:32:44.841Z,27.20
2022-11-15T00:35:35.056Z,21.77
2022-11-15T00:38:20.149Z,19.48
2022-11-15T00:41:09.645Z,21.52
2022-11-15T00:43:55.076Z,23.30
2022-11-15T00:46:44.395Z,21.47
2022-11-15T00:49:29.477Z,20.67
2022-11-15T00:52:14.380Z,22.97
2022-11-15T00:54:59.797Z,24.90
2022-11-15T00:57:45.530Z,23.52
2022-11-15T01:00:30.772Z,19.83
2022-11-15T01:03:16.132Z,20.48
2022-11-15T01:06:03.309Z,20.48
2022-11-15T01:08:48.673Z,18.60
2022-11-15T01:11:33.667Z,23.83
2022-11-15T01:14:25.401Z,21.02
2022-11-15T01:17:11.202Z,21.80
2022-11-15T01:19:56.339Z,20.90
2022-11-15T01:22:41.593Z,18.92
2022-11-15T01:25:31.909Z,17.90
2022-11-15T01:28:16.947Z,21.83
2022-11-15T01:31:03.471Z,18.85
2022-11-15T01:33:49.472Z,17.92
2022-11-15T01:36:37.807Z,19.65
2022-11-15T01:39:22.889Z,20.17
2022-11-15T01:42:13.726Z,20.40
2022-11-15T01:44:59.848Z,20.27
2022-11-15T01:47:52.207Z,20.75
2022-11-15T01:50:37.335Z,22.05
2022-11-15T01:53:25.436Z,20.88
2022-11-15T01:56:19.248Z,22.42
2022-11-15T01:59:06.775Z,19.95
2022-11-15T02:01:51.942Z,19.30
2022-11-15T02:04:46.632Z,20.65
2022-11-15T02:07:33.129Z,22.95
2022-11-15T02:10:21.062Z,20.90
2022-11-15T02:13:06.020Z,21.70
2022-11-15T02:16:27.032Z,23.27
2022-11-15T02:19:36.696Z,22.13
2022-11-15T02:23:16.788Z,19.58
2022-11-15T02:26:42.637Z,21.92
2022-11-15T02:29:54.744Z,25.55
2022-11-15T02:32:46.644Z,21.77
2022-11-15T02:35:49.940Z,24.17
2022-11-15T02:39:06.121Z,25.15
2022-11-15T02:42:01.317Z,23.95
2022-11-15T02:44:51.300Z,23.88
2022-11-15T02:47:44.263Z,22.08
2022-11-15T02:50:32.828Z,22.27
2022-11-15T02:53:17.755Z,27.45
2022-11-15T02:56:04.288Z,25.20
2022-11-15T02:59:19.683Z,24.95
2022-11-15T03:02:19.697Z,23.75
2022-11-15T03:05:38.623Z,23.77
2022-11-15T03:08:50.194Z,21.98
2022-11-15T03:11:42.223Z,25.80
2022-11-15T03:14:37.039Z,22.17
2022-11-15T03:17:27.415Z,24.48
2022-11-15T03:20:16.511Z,22.50
2022-11-15T03:23:06.082Z,23.58
2022-11-15T03:25:55.716Z,23.55
2022-11-15T03:28:47.670Z,22.75
2022-11-15T03:31:50.985Z,23.02
2022-11-15T03:34:50.554Z,22.30
2022-11-15T03:37:50.479Z,22.52
2022-11-15T03:40:40.713Z,22.38
2022-11-15T03:43:41.925Z,22.20
2022-11-15T03:46:42.169Z,21.50
2022-11-15T03:49:33.772Z,23.02
2022-11-15T03:52:20.924Z,25.10
2022-11-15T03:55:11.917Z,24.17
2022-11-15T03:57:59.915Z,24.35
2022-11-15T04:00:45.083Z,27.13
2022-11-15T04:03:30.391Z,28.10
2022-11-15T04:06:16.674Z,30.65
2022-11-15T04:09:01.701Z,26.00
2022-11-15T04:11:46.841Z,29.90
2022-11-15T04:14:34.796Z,26.33
2022-11-15T04:17:19.745Z,27.33
2022-11-15T04:20:29.390Z,30.67
2022-11-15T04:23:41.397Z,26.20
2022-11-15T04:26:26.732Z,29.52
2022-11-15T04:29:30.642Z,31.17
2022-11-15T04:32:15.717Z,26.15
2022-11-15T04:35:01.695Z,27.67
2022-11-15T04:37:49.475Z,25.30
2022-11-15T04:40:35.929Z,24.55
2022-11-15T04:43:21.012Z,24.60
2022-11-15T04:46:07.622Z,30.08
2022-11-15T04:48:58.259Z,27.70
2022-11-15T04:51:44.155Z,27.15
2022-11-15T04:54:30.726Z,22.98
2022-11-15T04:57:16.551Z,25.80
2022-11-15T05:00:04.188Z,24.00
2022-11-15T05:03:08.268Z,22.73
2022-11-15T05:06:19.681Z,24.30
2022-11-15T05:09:04.972Z,25.98
2022-11-15T05:11:49.767Z,24.10
2022-11-15T05:14:37.645Z,22.17
2022-11-15T05:17:22.457Z,21.20
2022-11-15T05:20:08.140Z,23.17
2022-11-15T05:22:56.316Z,18.73
2022-11-15T05:25:46.026Z,26.13
2022-11-15T05:28:32.190Z,23.55
2022-11-15T05:31:17.433Z,22.67
2022-11-15T05:34:05.537Z,25.85
2022-11-15T05:36:52.298Z,20.77
2022-11-15T05:39:37.527Z,26.63
2022-11-15T05:42:23.048Z,23.20
2022-11-15T05:45:09.589Z,23.48
2022-11-15T05:47:57.768Z,20.02
2022-11-15T05:50:45.976Z,19.45
2022-11-15T05:53:32.347Z,18.48
2022-11-15T05:56:17.853Z,20.50
2022-11-15T05:59:03.961Z,21.70
2022-11-15T06:04:38.161Z,21.17
2022-11-15T06:07:23.453Z,22.58
2022-11-15T06:10:09.285Z,21.75
2022-11-15T06:15:51.039Z,20.85
2022-11-15T06:18:37.255Z,19.85
2022-11-15T06:21:22.880Z,18.13
2022-11-15T06:24:08.245Z,20.48
2022-11-15T06:26:55.332Z,21.02
2022-11-15T06:29:40.217Z,20.55
2022-11-15T06:32:25.224Z,18.63
2022-11-15T06:35:09.982Z,18.55
2022-11-15T06:37:55.274Z,19.17
2022-11-15T06:40:40.831Z,19.00
2022-11-15T06:43:25.680Z,19.75
2022-11-15T06:46:12.502Z,21.90
2022-11-15T06:48:57.643Z,21.67
2022-11-15T06:51:43.007Z,16.23
2022-11-15T06:54:31.296Z,22.00
2022-11-15T06:57:16.213Z,15.90
2022-11-15T07:00:01.598Z,18.60
2022-11-15T07:02:47.101Z,16.63
2022-11-15T07:05:36.769Z,16.13
2022-11-15T07:08:23.318Z,15.82
2022-11-15T07:11:09.488Z,15.13
2022-11-15T07:13:54.620Z,16.40
2022-11-15T07:16:42.564Z,17.23
2022-11-15T07:19:27.657Z,15.40
2022-11-15T07:22:12.722Z,14.48
2022-11-15T07:24:58.508Z,14.25
2022-11-15T07:30:28.825Z,17.17
2022-11-15T07:33:14.187Z,16.05
2022-11-15T07:36:05.471Z,11.35
2022-11-15T07:38:50.424Z,17.15
2022-11-15T07:41:35.992Z,12.85
2022-11-15T07:44:30.197Z,12.65
2022-11-15T07:47:15.091Z,14.60
2022-11-15T07:50:00.442Z,12.93
2022-11-15T07:52:45.658Z,15.47
2022-11-15T07:55:34.984Z,14.30
2022-11-15T07:58:20.542Z,13.85
2022-11-15T08:01:11.058Z,14.70
2022-11-15T08:03:56.075Z,19.10
2022-11-15T08:06:42.244Z,13.57
2022-11-15T08:09:27.629Z,12.90
2022-11-15T08:12:12.824Z,19.70
2022-11-15T08:14:58.660Z,12.43
2022-11-15T08:17:43.832Z,13.90
2022-11-15T08:20:33.347Z,14.23
2022-11-15T08:23:18.288Z,14.38
2022-11-15T08:26:05.675Z,11.43
2022-11-15T08:28:50.885Z,13.77
2022-11-15T08:31:37.412Z,10.82
2022-11-15T08:34:26.719Z,10.85
2022-11-15T08:37:11.681Z,15.80
2022-11-15T08:39:56.426Z,15.63
2022-11-15T08:42:41.466Z,13.77
2022-11-15T08:45:31.838Z,11.38
2022-11-15T08:48:16.786Z,12.30
2022-11-15T08:51:01.627Z,10.80
2022-11-15T08:53:47.018Z,12.55
2022-11-15T08:56:32.203Z,9.98
2022-11-15T08:59:17.429Z,11.30
2022-11-15T09:02:02.747Z,14.70
2022-11-15T09:04:49.059Z,9.40
2022-11-15T09:07:34.452Z,9.70
2022-11-15T09:10:19.461Z,9.40
2022-11-15T09:13:04.802Z,10.38
2022-11-15T09:15:49.949Z,11.63
2022-11-15T09:18:35.619Z,8.55
2022-11-15T09:21:21.158Z,9.75
2022-11-15T09:24:06.252Z,8.63
2022-11-15T09:26:52.582Z,12.35
2022-11-15T09:29:37.552Z,7.68
2022-11-15T09:32:24.217Z,7.40
2022-11-15T09:35:13.210Z,6.55
2022-11-15T09:37:59.028Z,7.97
2022-11-15T09:40:44.340Z,6.28
2022-11-15T09:43:57.037Z,4.60
2022-11-15T09:47:19.429Z,6.45
2022-11-15T09:50:21.346Z,5.57
2022-11-15T09:52:47.877Z,3.05
2022-11-15T09:55:22.246Z,3.70
2022-11-15T09:57:57.613Z,5.27
2022-11-15T10:00:47.632Z,5.53
2022-11-15T10:03:24.529Z,4.18
2022-11-15T10:05:58.474Z,3.10
2022-11-15T10:08:27.921Z,2.75
2022-11-15T10:11:30.552Z,5.03
2022-11-15T10:13:50.394Z,3.15
2022-11-15T10:16:29.367Z,3.42
2022-11-15T10:19:07.727Z,3.58
2022-11-15T10:22:00.455Z,3.28
2022-11-15T10:24:43.489Z,3.40
2022-11-15T10:27:15.819Z,2.08
2022-11-15T10:29:50.228Z,3.38
2022-11-15T10:32:20.563Z,6.97
2022-11-15T10:34:50.897Z,7.38
2022-11-15T10:37:30.329Z,4.03
2022-11-15T10:40:17.247Z,4.07
2022-11-15T10:42:43.801Z,3.70
2022-11-15T10:45:32.310Z,4.72
2022-11-15T10:48:14.092Z,3.88
2022-11-15T10:50:46.556Z,3.92
2022-11-15T10:53:34.094Z,2.85
2022-11-15T10:56:07.701Z,3.85
2022-11-15T10:58:42.475Z,5.70
2022-11-15T11:01:21.318Z,5.03
2022-11-15T11:04:06.136Z,5.72
2022-11-15T11:06:50.311Z,6.75
2022-11-15T11:09:43.434Z,3.63
2022-11-15T11:12:13.240Z,3.63
2022-11-15T11:14:41.368Z,3.60
2022-11-15T11:17:49.303Z,5.97
2022-11-15T11:20:39.411Z,5.82
2022-11-15T11:23:24.292Z,5.22
2022-11-15T11:26:17.981Z,4.33
2022-11-15T11:28:54.490Z,5.30
2022-11-15T11:31:37.927Z,2.35
2022-11-15T11:34:39.652Z,2.60
2022-11-15T11:37:18.867Z,3.25
2022-11-15T11:40:11.112Z,4.50
2022-11-15T11:42:58.932Z,5.38
2022-11-15T11:45:35.378Z,3.05
2022-11-15T11:48:41.135Z,4.55
2022-11-15T11:51:16.687Z,2.20
2022-11-15T11:53:56.931Z,4.70
2022-11-15T11:56:37.924Z,3.08
2022-11-15T11:59:24.201Z,4.72
2022-11-15T12:01:50.877Z,3.10
2022-11-15T12:04:41.727Z,3.63
2022-11-15T12:07:21.066Z,4.85
2022-11-15T12:09:57.357Z,4.25
2022-11-15T12:12:40.053Z,3.65
2022-11-15T12:15:20.389Z,2.35
2022-11-15T12:17:48.190Z,2.20
2022-11-15T12:20:22.553Z,3.92
2022-11-15T12:23:04.733Z,2.47
2022-11-15T12:25:38.720Z,1.70
2022-11-15T12:28:18.292Z,2.92
2022-11-15T12:31:07.219Z,2.55
2022-11-15T12:33:44.508Z,4.25
2022-11-15T12:36:23.315Z,4.35
2022-11-15T12:38:55.958Z,2.55
2022-11-15T12:41:29.853Z,3.65
2022-11-15T12:43:57.432Z,3.53
2022-11-15T12:46:29.731Z,3.30
2022-11-15T12:48:59.395Z,3.42
2022-11-15T12:51:44.415Z,5.85
2022-11-15T12:54:23.604Z,4.43
2022-11-15T12:57:33.332Z,3.58
2022-11-15T13:00:13.558Z,4.95
2022-11-15T13:02:42.704Z,3.83
2022-11-15T13:05:16.671Z,4.03
2022-11-15T13:07:43.195Z,2.28
2022-11-15T13:10:12.809Z,2.72
2022-11-15T13:12:42.602Z,4.63
2022-11-15T13:15:18.266Z,4.53
2022-11-15T13:17:46.311Z,4.85
2022-11-15T13:20:15.302Z,3.58
2022-11-15T13:22:51.902Z,2.35
2022-11-15T13:25:51.339Z,2.50
2022-11-15T13:28:17.775Z,2.50
2022-11-15T13:30:47.456Z,2.97
2022-11-15T13:33:40.422Z,4.25
2022-11-15T13:36:22.989Z,4.22
2022-11-15T13:39:02.167Z,2.45
2022-11-15T13:41:34.881Z,6.63
2022-11-15T13:44:03.696Z,4.25
2022-11-15T13:46:35.002Z,2.35
2022-11-15T13:49:12.375Z,6.07
2022-11-15T13:51:51.349Z,7.05
2022-11-15T13:54:43.937Z,1.52
2022-11-15T13:57:22.117Z,5.53
2022-11-15T13:59:55.685Z,4.20
2022-11-15T14:02:36.041Z,3.47
2022-11-15T14:05:20.708Z,3.38
2022-11-15T14:08:01.776Z,3.83
2022-11-15T14:10:37.256Z,3.40
2022-11-15T14:13:05.617Z,2.88
2022-11-15T14:15:37.671Z,3.33
2022-11-15T14:18:05.421Z,4.20
2022-11-15T14:20:39.286Z,4.00
2022-11-15T14:23:28.376Z,3.47
2022-11-15T14:25:59.752Z,2.55
2022-11-15T14:28:26.338Z,5.15
2022-11-15T14:30:56.361Z,3.45
2022-11-15T14:33:34.972Z,6.13
2022-11-15T14:36:19.971Z,3.55
2022-11-15T14:38:47.363Z,2.53
2022-11-15T14:41:21.719Z,2.28
2022-11-15T14:43:48.476Z,1.20
2022-11-15T14:46:20.032Z,1.08
2022-11-15T14:48:46.594Z,4.10
2022-11-15T14:51:19.853Z,1.83
2022-11-15T14:53:47.603Z,3.35
2022-11-15T14:56:15.522Z,3.40
2022-11-15T14:58:42.036Z,3.88
2022-11-15T15:01:24.484Z,3.72
2022-11-15T15:03:53.043Z,5.25
2022-11-15T15:06:24.176Z,3.55
2022-11-15T15:08:52.133Z,2.13
2022-11-15T15:11:23.624Z,3.53
2022-11-15T15:13:51.469Z,3.35
2022-11-15T15:16:20.722Z,4.93
2022-11-15T15:18:47.203Z,3.47
2022-11-15T15:21:22.915Z,2.03
2022-11-15T15:23:49.703Z,2.78
2022-11-15T15:26:17.393Z,1.98
2022-11-15T15:28:43.984Z,3.53
2022-11-15T15:31:11.374Z,2.55
2022-11-15T15:33:39.648Z,1.98
2022-11-15T15:36:14.361Z,2.90
2022-11-15T15:38:42.338Z,3.40
2022-11-15T15:41:14.458Z,4.00
2022-11-15T15:43:41.655Z,4.68
2022-11-15T15:46:13.501Z,2.58
2022-11-15T15:48:40.577Z,4.00
2022-11-15T15:51:15.459Z,4.38
2022-11-15T15:53:45.277Z,2.92
2022-11-15T15:56:15.266Z,6.55
2022-11-15T15:58:41.750Z,4.25
2022-11-15T16:01:08.416Z,2.85
2022-11-15T16:03:34.976Z,3.47
2022-11-15T16:06:05.154Z,4.80
2022-11-15T16:08:42.564Z,2.50
2022-11-15T16:11:14.550Z,3.25
2022-11-15T16:13:42.130Z,6.45
2022-11-15T16:16:14.206Z,6.68
2022-11-15T16:18:40.700Z,4.30
2022-11-15T16:21:09.338Z,9.07
2022-11-15T16:23:35.853Z,3.63
2022-11-15T16:26:25.522Z,2.47
2022-11-15T16:28:52.851Z,3.78
2022-11-15T16:31:22.072Z,5.90
2022-11-15T16:33:49.004Z,3.72
2022-11-15T16:36:30.555Z,5.15
2022-11-15T16:38:58.515Z,2.20
2022-11-15T16:41:25.214Z,2.75
2022-11-15T16:43:52.434Z,3.33
2022-11-15T16:46:24.386Z,1.85
2022-11-15T16:48:51.476Z,4.20
2022-11-15T16:51:18.141Z,3.45
2022-11-15T16:53:44.876Z,4.93
2022-11-15T16:56:26.396Z,4.57
2022-11-15T16:59:00.328Z,5.25
2022-11-15T17:01:50.675Z,3.85
2022-11-15T17:04:22.660Z,3.90
2022-11-15T17:06:49.596Z,2.72
2022-11-15T17:09:25.966Z,3.80
2022-11-15T17:11:52.936Z,4.70
2022-11-15T17:14:23.572Z,3.85
2022-11-15T17:16:50.449Z,4.28
2022-11-15T17:19:21.745Z,3.55
2022-11-15T17:21:51.765Z,3.25
2022-11-15T17:24:23.041Z,6.78
2022-11-15T17:26:49.614Z,6.68
2022-11-15T17:29:16.134Z,5.90
2022-11-15T17:31:42.666Z,4.47
2022-11-15T17:34:09.187Z,4.78
2022-11-15T17:36:40.618Z,4.47
2022-11-15T17:39:07.345Z,3.70
2022-11-15T17:41:33.828Z,5.57
2022-11-15T17:44:02.087Z,4.93
2022-11-15T17:46:29.317Z,5.15
2022-11-15T17:48:57.080Z,6.82
2022-11-15T17:51:24.093Z,4.68
2022-11-15T17:53:51.430Z,5.13
2022-11-15T17:56:20.439Z,4.35
2022-11-15T17:58:53.037Z,5.40
2022-11-15T18:01:20.954Z,4.82
2022-11-15T18:03:48.540Z,3.83
2022-11-15T18:06:20.846Z,5.30
2022-11-15T18:08:49.070Z,5.00
2022-11-15T18:11:20.038Z,6.30
2022-11-15T18:13:52.242Z,5.03
2022-11-15T18:16:22.392Z,6.47
2022-11-15T18:18:49.008Z,4.00
2022-11-15T18:21:19.959Z,4.15
2022-11-15T18:23:46.611Z,5.75
2022-11-15T18:26:17.956Z,6.80
2022-11-15T18:28:49.348Z,4.93
2022-11-15T18:31:27.319Z,6.90
2022-11-15T18:33:54.271Z,6.20
2022-11-15T18:36:27.501Z,5.45
2022-11-15T18:38:59.023Z,6.57
2022-11-15T18:41:28.387Z,5.53
2022-11-15T18:43:56.513Z,4.43
2022-11-15T18:46:24.815Z,5.72
2022-11-15T18:48:52.711Z,5.40
2022-11-15T18:51:21.323Z,6.93
2022-11-15T18:53:48.446Z,6.13
2022-11-15T18:56:19.656Z,5.35
2022-11-15T18:58:48.364Z,5.30
2022-11-15T19:01:38.001Z,5.95
2022-11-15T19:04:07.892Z,7.00
2022-11-15T19:06:41.146Z,9.40
2022-11-15T19:09:09.154Z,6.75
2022-11-15T19:11:37.436Z,5.97
2022-11-15T19:14:12.252Z,6.30
2022-11-15T19:16:41.543Z,8.07
2022-11-15T19:19:13.091Z,8.15
2022-11-15T19:21:39.599Z,6.57
2022-11-15T19:24:06.521Z,5.97
2022-11-15T19:26:33.122Z,5.03
2022-11-15T19:29:01.815Z,6.05
2022-11-15T19:31:30.356Z,6.93
2022-11-15T19:33:59.729Z,7.50
2022-11-15T19:36:33.136Z,6.93
2022-11-15T19:39:05.150Z,7.90
2022-11-15T19:41:32.377Z,4.68
2022-11-15T19:43:58.973Z,7.07
2022-11-15T19:46:29.324Z,8.13
2022-11-15T19:48:55.786Z,6.45
2022-11-15T19:51:24.439Z,6.85
2022-11-15T19:53:56.251Z,6.43
2022-11-15T19:56:27.230Z,6.85
2022-11-15T19:58:55.704Z,9.50
2022-11-15T20:01:23.558Z,7.53
2022-11-15T20:03:53.930Z,6.72
2022-11-15T20:06:24.810Z,6.15
2022-11-15T20:08:51.812Z,6.57
2022-11-15T20:11:19.099Z,6.45
2022-11-15T20:13:45.770Z,6.60
2022-11-15T20:16:19.756Z,7.95
2022-11-15T20:18:47.232Z,6.93
2022-11-15T20:21:14.195Z,8.30
2022-11-15T20:23:41.341Z,6.40
2022-11-15T20:26:12.457Z,5.95
2022-11-15T20:28:40.170Z,7.20
2022-11-15T20:31:07.790Z,6.88
2022-11-15T20:33:34.566Z,9.50
2022-11-15T20:36:11.888Z,6.10
2022-11-15T20:38:38.777Z,7.32
2022-11-15T20:41:06.340Z,5.90
2022-11-15T20:43:32.940Z,7.50
2022-11-15T20:46:04.182Z,8.13
2022-11-15T20:48:31.162Z,8.90
2022-11-15T20:51:23.975Z,6.55
2022-11-15T20:53:50.613Z,5.85
2022-11-15T20:56:22.154Z,6.38
2022-11-15T20:58:53.287Z,5.60
2022-11-15T21:01:24.761Z,9.65
2022-11-15T21:03:53.178Z,5.03
2022-11-15T21:06:22.489Z,5.93
2022-11-15T21:09:09.219Z,7.15
2022-11-15T21:11:54.292Z,6.78
2022-11-15T21:14:23.871Z,7.35
2022-11-15T21:16:50.432Z,6.35
2022-11-15T21:19:16.988Z,5.90
2022-11-15T21:21:43.570Z,7.55
2022-11-15T21:24:10.765Z,5.95
2022-11-15T21:26:37.393Z,6.70
2022-11-15T21:29:04.565Z,5.88
2022-11-15T21:31:31.949Z,7.35
2022-11-15T21:34:00.753Z,6.88
2022-11-15T21:36:29.009Z,7.63
2022-11-15T21:38:55.572Z,7.13
2022-11-15T21:41:22.075Z,9.30
2022-11-15T21:43:48.665Z,8.50
2022-11-15T21:46:15.169Z,9.57
2022-11-15T21:48:41.644Z,8.68
2022-11-15T21:51:10.898Z,6.47
2022-11-15T21:53:37.369Z,7.40
2022-11-15T21:56:06.740Z,8.00
2022-11-15T21:58:33.662Z,6.75
2022-11-15T22:01:19.180Z,9.20
2022-11-15T22:03:45.854Z,7.35
2022-11-15T22:06:17.693Z,8.73
2022-11-15T22:08:45.775Z,9.88
2022-11-15T22:11:12.920Z,10.20
2022-11-15T22:13:39.436Z,8.23
2022-11-15T22:16:09.941Z,9.27
2022-11-15T22:18:36.957Z,7.95
2022-11-15T22:21:06.952Z,9.25
2022-11-15T22:23:34.715Z,8.00
2022-11-15T22:26:02.025Z,8.75
2022-11-15T22:28:30.371Z,8.25
2022-11-15T22:30:57.859Z,7.50
2022-11-15T22:33:27.308Z,7.68
2022-11-15T22:35:57.347Z,10.15
2022-11-15T22:38:24.992Z,6.88
2022-11-15T22:40:51.637Z,7.10
2022-11-15T22:43:21.137Z,10.07
2022-11-15T22:45:54.469Z,9.00
2022-11-15T22:48:27.542Z,6.85
2022-11-15T22:50:54.648Z,7.75
2022-11-15T22:53:21.923Z,8.70
2022-11-15T22:55:58.460Z,7.50
2022-11-15T22:58:27.356Z,7.55
2022-11-15T23:00:56.891Z,8.38
2022-11-15T23:03:24.045Z,7.40
2022-11-15T23:05:54.885Z,10.45
2022-11-15T23:08:23.299Z,8.27
2022-11-15T23:11:08.437Z,7.88
2022-11-15T23:13:34.910Z,7.50
2022-11-15T23:16:25.243Z,8.07
2022-11-15T23:18:57.305Z,8.70
2022-11-15T23:21:49.536Z,11.48
2022-11-15T23:24:24.046Z,8.63
2022-11-15T23:26:53.317Z,8.63
2022-11-15T23:29:22.904Z,10.57
2022-11-15T23:32:07.927Z,8.57
2022-11-15T23:34:40.982Z,8.13
2022-11-15T23:37:09.810Z,9.80
2022-11-15T23:39:36.312Z,8.07
2022-11-15T23:42:08.592Z,9.02
2022-11-15T23:44:39.980Z,9.75
2022-11-15T23:47:06.492Z,9.05
2022-11-15T23:49:33.127Z,10.43
2022-11-15T23:51:59.593Z,10.50
2022-11-15T23:54:29.163Z,9.40
2022-11-15T23:56:55.597Z,10.20
2022-11-15T23:59:22.104Z,10.40
